Time;durP1;ratioP1;P1;durP2;ratioP2;P2;SDS_P1;SDS_P2;PMS_P1;PMS_P2;Temp;Humidity;BMP_temperature;BMP_pressure;BME280_temperature;BME280_humidity;BME280_pressure;Samples;Min_cycle;Max_cycle;Signal;HPM_P1;HPM_P2
2022/04/19 00:01:04;;;;;;;0.10;0.10;;;9.50;99.90;;;;;;5007987;28;20204;-82
2022/04/19 00:03:30;;;;;;;0.63;0.63;;;9.60;99.90;;;;;;4999673;28;20652;-82
2022/04/19 00:05:56;;;;;;;0.20;0.20;;;9.60;99.90;;;;;;5006439;28;20215;-82
2022/04/19 00:08:21;;;;;;;0.10;0.10;;;9.60;99.90;;;;;;5006144;28;20226;-82
2022/04/19 00:10:47;;;;;;;0.20;0.20;;;9.60;99.90;;;;;;5006085;28;20198;-82
2022/04/19 00:13:16;;;;;;;0.10;0.10;;;9.60;99.90;;;;;;5005991;28;20305;-82
2022/04/19 00:15:42;;;;;;;0.17;0.17;;;9.50;99.90;;;;;;4997912;28;20187;-82
2022/04/19 00:18:08;;;;;;;0.30;0.30;;;9.50;99.90;;;;;;5002354;28;20914;-82
2022/04/19 00:20:34;;;;;;;0.10;0.10;;;9.40;99.90;;;;;;5005797;28;20195;-82
2022/04/19 00:23:00;;;;;;;0.20;0.20;;;9.50;99.90;;;;;;5005663;28;20194;-82
2022/04/19 00:25:26;;;;;;;0.10;0.10;;;9.40;99.90;;;;;;5004732;28;20270;-82
2022/04/19 00:27:52;;;;;;;0.20;0.20;;;9.40;99.90;;;;;;4999721;28;21267;-82
2022/04/19 00:30:17;;;;;;;0.43;0.20;;;9.40;99.90;;;;;;5016362;28;20195;-82
2022/04/19 00:32:43;;;;;;;0.23;0.23;;;9.50;99.90;;;;;;5013610;28;20242;-82
2022/04/19 00:35:10;;;;;;;0.10;0.10;;;9.50;99.90;;;;;;5007284;28;20240;-82
2022/04/19 00:37:39;;;;;;;0.10;0.10;;;9.40;99.90;;;;;;5017186;28;20207;-82
2022/04/19 00:40:07;;;;;;;0.17;0.17;;;9.20;99.90;;;;;;5006687;28;20223;-82
2022/04/19 00:42:33;;;;;;;0.20;0.20;;;8.90;99.90;;;;;;5013935;28;20201;-82
2022/04/19 00:45:04;;;;;;;0.13;0.13;;;8.90;99.90;;;;;;5015342;28;20257;-82
2022/04/19 00:47:32;;;;;;;0.30;0.30;;;8.90;99.90;;;;;;5000869;28;20699;-82
2022/04/19 00:50:01;;;;;;;0.40;0.40;;;9.00;99.90;;;;;;5006045;28;20210;-82
2022/04/19 00:52:27;;;;;;;0.30;0.30;;;9.00;99.90;;;;;;5013427;28;20202;-82
2022/04/19 00:54:53;;;;;;;0.20;0.20;;;9.00;99.90;;;;;;5007171;28;20200;-82
2022/04/19 00:57:19;;;;;;;0.20;0.10;;;9.10;99.90;;;;;;4999857;28;20189;-82
2022/04/19 00:59:46;;;;;;;2.27;0.47;;;8.80;99.90;;;;;;4999860;28;20700;-81
2022/04/19 01:02:11;;;;;;;0.20;0.20;;;8.60;99.90;;;;;;4999917;28;20561;-82
2022/04/19 01:04:37;;;;;;;0.10;0.10;;;8.50;99.90;;;;;;5015120;28;20198;-82
2022/04/19 01:07:03;;;;;;;0.10;0.10;;;8.60;99.90;;;;;;5005403;28;20206;-82
2022/04/19 01:09:30;;;;;;;0.10;0.10;;;8.70;99.90;;;;;;5014003;28;20482;-82
2022/04/19 01:14:40;;;;;;;0.10;0.10;;;8.70;99.90;;;;;;5015026;28;20211;-82
2022/04/19 01:17:07;;;;;;;0.10;0.10;;;8.80;99.90;;;;;;5005490;28;20186;-83
2022/04/19 01:19:35;;;;;;;0.10;0.10;;;8.80;99.90;;;;;;5014253;28;20345;-82
2022/04/19 01:22:00;;;;;;;0.20;0.17;;;8.70;99.90;;;;;;5004405;28;20191;-82
2022/04/19 01:24:26;;;;;;;0.37;0.30;;;8.70;99.90;;;;;;4999161;28;20268;-83
2022/04/19 01:26:57;;;;;;;0.20;0.20;;;8.50;99.90;;;;;;4997994;28;20198;-82
2022/04/19 01:29:24;;;;;;;0.10;0.10;;;8.60;99.90;;;;;;5000143;28;20292;-83
2022/04/19 01:31:51;;;;;;;0.10;0.10;;;8.50;99.90;;;;;;5004832;28;20269;-83
2022/04/19 01:34:18;;;;;;;0.10;0.10;;;8.60;99.90;;;;;;4999147;28;20559;-82
2022/04/19 01:36:44;;;;;;;0.10;0.10;;;8.60;99.90;;;;;;4998613;28;20198;-83
2022/04/19 01:39:10;;;;;;;0.10;0.10;;;8.60;99.90;;;;;;5004513;28;20223;-83
2022/04/19 01:41:37;;;;;;;0.10;0.10;;;8.60;99.90;;;;;;5004594;28;20655;-84
2022/04/19 01:44:07;;;;;;;0.10;0.10;;;8.60;99.90;;;;;;5003977;28;20201;-83
2022/04/19 01:46:33;;;;;;;0.20;0.20;;;8.60;99.90;;;;;;4998929;28;20197;-83
2022/04/19 01:49:02;;;;;;;0.10;0.10;;;8.70;99.90;;;;;;5005456;28;20248;-83
2022/04/19 01:51:27;;;;;;;0.17;0.17;;;8.60;99.90;;;;;;5005157;28;20544;-83
2022/04/19 01:53:55;;;;;;;0.30;0.30;;;8.50;99.90;;;;;;5004259;28;20220;-83
2022/04/19 01:56:21;;;;;;;0.50;0.20;;;8.50;99.90;;;;;;5004183;28;20191;-83
2022/04/19 01:58:48;;;;;;;0.30;0.30;;;8.50;99.90;;;;;;5004523;28;20214;-83
2022/04/19 02:01:14;;;;;;;0.10;0.10;;;8.50;99.90;;;;;;4997445;28;20281;-83
2022/04/19 02:03:39;;;;;;;0.10;0.10;;;8.50;99.90;;;;;;4996012;28;20186;-82
2022/04/19 02:06:09;;;;;;;0.20;0.20;;;8.40;99.90;;;;;;5006613;28;20243;-84
2022/04/19 02:08:35;;;;;;;0.30;0.30;;;8.00;99.90;;;;;;5013264;28;20754;-83
2022/04/19 02:11:00;;;;;;;0.10;0.10;;;7.90;99.90;;;;;;5005110;28;20210;-82
2022/04/19 02:13:27;;;;;;;0.20;0.20;;;7.80;99.90;;;;;;5004259;28;20209;-83
2022/04/19 02:15:52;;;;;;;0.10;0.10;;;7.90;99.90;;;;;;5004507;28;20188;-83
2022/04/19 02:18:19;;;;;;;0.40;0.40;;;8.00;99.90;;;;;;5000074;28;20209;-83
2022/04/19 02:20:45;;;;;;;0.10;0.10;;;8.10;99.90;;;;;;4997771;28;20213;-83
2022/04/19 02:23:14;;;;;;;0.20;0.20;;;8.20;99.90;;;;;;5013045;28;20200;-84
2022/04/19 02:25:40;;;;;;;0.30;0.30;;;8.30;99.90;;;;;;5004735;28;20190;-83
2022/04/19 02:28:07;;;;;;;0.10;0.10;;;8.20;99.90;;;;;;5003220;28;20261;-83
2022/04/19 02:30:33;;;;;;;0.10;0.10;;;8.10;99.90;;;;;;5011716;28;20222;-83
2022/04/19 02:32:59;;;;;;;0.20;0.20;;;8.20;99.90;;;;;;5013178;28;20242;-83
2022/04/19 02:35:27;;;;;;;0.10;0.10;;;8.20;99.90;;;;;;5012075;28;20178;-83
2022/04/19 02:37:58;;;;;;;0.20;0.20;;;8.20;99.90;;;;;;4995207;28;20202;-83
2022/04/19 02:40:25;;;;;;;0.73;0.17;;;8.20;99.90;;;;;;5014648;28;20276;-83
2022/04/19 02:42:53;;;;;;;0.10;0.10;;;8.20;99.90;;;;;;5003119;28;20213;-83
2022/04/19 02:45:19;;;;;;;0.30;0.30;;;8.30;99.90;;;;;;5003885;28;20210;-83
2022/04/19 02:47:45;;;;;;;1.23;0.20;;;8.40;99.90;;;;;;5003124;28;20215;-82
2022/04/19 02:50:11;;;;;;;0.10;0.10;;;8.40;99.90;;;;;;5017670;28;20186;-83
2022/04/19 02:52:37;;;;;;;2.23;0.53;;;8.40;99.90;;;;;;4999184;28;22019;-83
2022/04/19 02:55:03;;;;;;;0.20;0.20;;;8.40;99.90;;;;;;5000406;28;20211;-83
2022/04/19 02:57:28;;;;;;;0.10;0.10;;;8.20;99.90;;;;;;5004317;28;20679;-83
2022/04/19 02:59:54;;;;;;;0.20;0.20;;;8.20;99.90;;;;;;5003796;28;20236;-83
2022/04/19 03:02:20;;;;;;;0.20;0.20;;;8.20;99.90;;;;;;5000598;28;20233;-83
2022/04/19 03:04:46;;;;;;;0.73;0.20;;;8.20;99.90;;;;;;5006970;28;20675;-83
2022/04/19 03:07:14;;;;;;;0.10;0.10;;;8.20;99.90;;;;;;5000281;28;20232;-83
2022/04/19 03:09:40;;;;;;;0.30;0.27;;;8.20;99.90;;;;;;4999720;28;21205;-83
2022/04/19 03:12:07;;;;;;;0.10;0.10;;;8.20;99.90;;;;;;5007293;28;20211;-83
2022/04/19 03:14:33;;;;;;;0.10;0.10;;;8.10;99.90;;;;;;5007295;28;20647;-83
2022/04/19 03:17:00;;;;;;;0.00;0.00;;;8.10;99.90;;;;;;5002081;28;20236;-83
2022/04/19 03:19:25;;;;;;;0.60;0.40;;;8.10;99.90;;;;;;5008265;28;20284;-83
2022/04/19 03:21:51;;;;;;;0.00;0.00;;;8.10;99.90;;;;;;5007728;28;20284;-83
2022/04/19 03:29:44;;;;;;;0.70;0.20;;;8.00;99.90;;;;;;5003305;28;20201;-83
2022/04/19 03:32:11;;;;;;;0.10;0.10;;;8.10;99.90;;;;;;4999983;28;20237;-83
2022/04/19 03:34:36;;;;;;;0.20;0.20;;;8.10;99.90;;;;;;5002767;28;20243;-83
2022/04/19 03:37:02;;;;;;;0.67;0.67;;;8.00;99.90;;;;;;5001636;28;20189;-83
2022/04/19 03:39:27;;;;;;;0.20;0.20;;;7.90;99.90;;;;;;5006704;28;20214;-83
2022/04/19 03:41:53;;;;;;;0.10;0.10;;;7.90;99.90;;;;;;5016879;28;20229;-83
2022/04/19 03:44:19;;;;;;;0.30;0.30;;;7.90;99.90;;;;;;5000380;28;20264;-83
2022/04/19 03:49:29;;;;;;;0.30;0.30;;;7.80;99.90;;;;;;5001281;28;20224;-83
2022/04/19 03:51:54;;;;;;;0.27;0.13;;;7.70;99.90;;;;;;5015707;28;20212;-83
2022/04/19 03:54:20;;;;;;;0.27;0.27;;;7.70;99.90;;;;;;5000512;28;20185;-82
2022/04/19 03:56:45;;;;;;;0.17;0.17;;;7.60;99.90;;;;;;5000045;28;20198;-83
2022/04/19 03:59:11;;;;;;;0.13;0.13;;;7.50;99.90;;;;;;5001766;28;20253;-83
2022/04/19 04:01:38;;;;;;;0.20;0.20;;;7.50;99.90;;;;;;4999652;28;20557;-83
2022/04/19 04:04:04;;;;;;;3.83;0.90;;;7.50;99.90;;;;;;5000620;28;20236;-83
2022/04/19 04:06:30;;;;;;;0.10;0.10;;;7.40;99.90;;;;;;5015230;28;20260;-83
2022/04/19 04:08:56;;;;;;;0.30;0.30;;;7.40;99.90;;;;;;5000941;28;20216;-83
2022/04/19 04:11:22;;;;;;;0.57;0.33;;;7.30;99.90;;;;;;5001358;28;20197;-82
2022/04/19 04:13:47;;;;;;;0.10;0.10;;;7.30;99.90;;;;;;5004984;28;20291;-82
2022/04/19 04:16:13;;;;;;;0.30;0.20;;;7.30;99.90;;;;;;5001012;28;20195;-83
2022/04/19 04:18:39;;;;;;;0.27;0.20;;;7.30;99.90;;;;;;5000880;28;20214;-82
2022/04/19 04:21:05;;;;;;;0.10;0.10;;;7.30;99.90;;;;;;5007188;28;20202;-83
2022/04/19 04:23:33;;;;;;;0.70;0.53;;;7.20;99.90;;;;;;5006801;28;21541;-82
2022/04/19 04:25:59;;;;;;;0.47;0.47;;;7.20;99.90;;;;;;5005811;28;20243;-83
2022/04/19 04:28:25;;;;;;;0.10;0.10;;;7.20;99.90;;;;;;5001208;28;20208;-83
2022/04/19 04:30:50;;;;;;;0.20;0.20;;;7.30;99.90;;;;;;5003939;28;20218;-82
2022/04/19 04:33:16;;;;;;;1.13;0.10;;;7.30;99.90;;;;;;4998962;28;20238;-83
2022/04/19 04:35:43;;;;;;;0.10;0.10;;;7.30;99.90;;;;;;5013988;28;20943;-83
2022/04/19 04:38:08;;;;;;;0.17;0.17;;;7.30;99.90;;;;;;4998961;28;20247;-82
2022/04/19 04:40:34;;;;;;;0.40;0.30;;;7.30;99.90;;;;;;5000353;28;20272;-83
2022/04/19 04:42:59;;;;;;;1.37;1.33;;;7.40;99.90;;;;;;4998413;28;20227;-82
2022/04/19 04:45:28;;;;;;;0.10;0.10;;;7.40;99.90;;;;;;5001254;28;20293;-83
2022/04/19 04:50:37;;;;;;;0.23;0.23;;;7.40;99.90;;;;;;5000410;28;20278;-83
2022/04/19 04:53:03;;;;;;;0.27;0.27;;;7.50;99.90;;;;;;4997728;28;20284;-83
2022/04/19 04:55:29;;;;;;;0.10;0.10;;;7.40;99.90;;;;;;4999963;28;20240;-83
2022/04/19 04:57:58;;;;;;;0.33;0.30;;;7.50;99.90;;;;;;4997422;28;20780;-83
2022/04/19 05:00:25;;;;;;;0.50;0.40;;;7.50;99.90;;;;;;5003610;28;20214;-83
2022/04/19 05:02:50;;;;;;;0.30;0.30;;;7.50;99.90;;;;;;4998182;28;20568;-80
2022/04/19 05:05:16;;;;;;;0.10;0.10;;;7.50;99.90;;;;;;5013135;28;20222;-80
2022/04/19 05:07:42;;;;;;;0.20;0.20;;;7.50;99.90;;;;;;4998682;28;20225;-80
2022/04/19 05:10:08;;;;;;;0.10;0.10;;;7.50;99.90;;;;;;5005421;28;20273;-81
2022/04/19 05:12:33;;;;;;;0.20;0.20;;;7.60;99.90;;;;;;5003213;28;20223;-80
2022/04/19 05:14:59;;;;;;;0.10;0.10;;;7.60;99.90;;;;;;4997915;28;20188;-81
2022/04/19 05:17:25;;;;;;;0.13;0.13;;;7.70;99.90;;;;;;5011756;28;20266;-79
2022/04/19 05:19:52;;;;;;;0.40;0.40;;;7.70;99.90;;;;;;5003901;28;20644;-80
2022/04/19 05:22:17;;;;;;;0.27;0.27;;;7.80;99.90;;;;;;5003822;28;20190;-80
2022/04/19 05:24:43;;;;;;;0.30;0.30;;;7.80;99.90;;;;;;4997363;28;20189;-84
2022/04/19 05:27:08;;;;;;;0.77;0.77;;;7.80;99.90;;;;;;4997860;28;20273;-85
2022/04/19 05:29:34;;;;;;;0.10;0.10;;;7.70;99.90;;;;;;5005421;28;20212;-85
2022/04/19 05:31:59;;;;;;;1.10;0.27;;;7.70;99.90;;;;;;5011931;28;20218;-85
2022/04/19 05:34:25;;;;;;;0.10;0.10;;;7.70;99.90;;;;;;4999714;28;20188;-86
2022/04/19 05:36:52;;;;;;;0.20;0.20;;;7.80;99.90;;;;;;4999563;28;20587;-85
2022/04/19 05:39:17;;;;;;;0.20;0.20;;;7.70;99.90;;;;;;4998203;28;20266;-84
2022/04/19 05:41:43;;;;;;;0.27;0.27;;;7.60;99.90;;;;;;5000629;28;20193;-84
2022/04/19 05:44:09;;;;;;;0.20;0.20;;;7.70;99.90;;;;;;4999317;28;20278;-85
2022/04/19 05:46:36;;;;;;;0.30;0.30;;;7.80;99.90;;;;;;4999323;28;20192;-84
2022/04/19 05:49:04;;;;;;;0.10;0.10;;;7.80;99.90;;;;;;4998628;28;20295;-85
2022/04/19 05:51:30;;;;;;;0.30;0.30;;;7.80;99.90;;;;;;5003580;28;20331;-84
2022/04/19 05:53:55;;;;;;;0.20;0.20;;;7.80;99.90;;;;;;4999523;28;20278;-84
2022/04/19 05:56:21;;;;;;;0.10;0.10;;;7.80;99.90;;;;;;5003458;28;20228;-80
2022/04/19 05:58:46;;;;;;;0.67;0.30;;;7.80;99.90;;;;;;5004127;28;20210;-81
2022/04/19 06:01:12;;;;;;;0.27;0.27;;;7.90;99.90;;;;;;4997671;28;20185;-81
2022/04/19 06:06:22;;;;;;;0.20;0.20;;;8.10;99.90;;;;;;4997689;28;20193;-83
2022/04/19 06:08:49;;;;;;;0.23;0.23;;;8.20;99.90;;;;;;5013902;28;20215;-84
2022/04/19 06:11:15;;;;;;;0.47;0.47;;;8.30;99.90;;;;;;4995855;28;20196;-81
2022/04/19 06:13:41;;;;;;;0.40;0.30;;;8.40;99.90;;;;;;5002343;28;20194;-81
2022/04/19 06:16:07;;;;;;;0.40;0.30;;;8.60;99.90;;;;;;5010806;28;20203;-83
2022/04/19 06:18:33;;;;;;;0.33;0.30;;;8.60;99.90;;;;;;4996291;28;20271;-83
2022/04/19 06:20:59;;;;;;;0.37;0.37;;;8.80;99.90;;;;;;5001911;28;20226;-82
2022/04/19 06:23:26;;;;;;;0.63;0.37;;;9.00;99.90;;;;;;4995628;28;20203;-83
2022/04/19 06:25:51;;;;;;;0.27;0.20;;;9.10;99.90;;;;;;4998685;28;20189;-82
2022/04/19 06:28:17;;;;;;;0.27;0.20;;;9.30;99.90;;;;;;4999952;28;20217;-83
2022/04/19 06:30:43;;;;;;;0.23;0.23;;;9.30;99.90;;;;;;5003552;28;20663;-83
2022/04/19 06:33:09;;;;;;;0.27;0.27;;;9.50;99.90;;;;;;5000404;28;20249;-83
2022/04/19 06:35:34;;;;;;;0.50;0.30;;;9.60;99.90;;;;;;5017681;28;20189;-82
2022/04/19 06:38:00;;;;;;;0.10;0.10;;;9.70;99.90;;;;;;5002983;28;20209;-82
2022/04/19 06:40:26;;;;;;;0.10;0.10;;;9.80;99.90;;;;;;5003206;28;20263;-82
2022/04/19 06:42:51;;;;;;;0.53;0.23;;;10.00;99.90;;;;;;5001946;28;20186;-82
2022/04/19 06:45:17;;;;;;;0.63;0.40;;;10.10;99.90;;;;;;5017791;28;20186;-82
2022/04/19 06:47:44;;;;;;;0.40;0.40;;;10.10;99.90;;;;;;4997767;28;20239;-81
2022/04/19 06:50:10;;;;;;;0.20;0.20;;;10.10;99.90;;;;;;5007483;28;20194;-86
2022/04/19 06:52:37;;;;;;;0.17;0.17;;;10.20;99.90;;;;;;5003550;28;20360;-83
2022/04/19 06:55:03;;;;;;;0.17;0.17;;;10.40;99.90;;;;;;5000855;28;20681;-84
2022/04/19 06:57:35;;;;;;;0.20;0.20;;;10.70;99.90;;;;;;4999558;28;20198;-82
2022/04/19 07:00:01;;;;;;;0.10;0.10;;;10.80;99.90;;;;;;4999179;28;20189;-82
2022/04/19 07:02:26;;;;;;;0.30;0.30;;;11.10;99.90;;;;;;5006430;28;20186;-82
2022/04/19 07:04:52;;;;;;;0.57;0.50;;;11.20;99.90;;;;;;5003343;28;20183;-83
2022/04/19 07:07:18;;;;;;;0.20;0.20;;;11.20;99.90;;;;;;5001542;28;20225;-81
2022/04/19 07:09:45;;;;;;;2.33;0.50;;;11.30;99.90;;;;;;4999867;28;20184;-82
2022/04/19 07:12:10;;;;;;;0.20;0.20;;;11.40;99.90;;;;;;5015853;28;20207;-82
2022/04/19 07:14:36;;;;;;;0.97;0.53;;;11.60;99.90;;;;;;5007979;28;20230;-82
2022/04/19 07:17:03;;;;;;;0.20;0.20;;;11.80;99.90;;;;;;5007906;28;20656;-81
2022/04/19 07:26:37;;;;;;;0.57;0.30;;;11.90;99.90;;;;;;5007781;28;20194;-82
2022/04/19 07:27:43;;;;;;;0.50;0.50;;;12.60;99.90;;;;;;5002479;28;20590;-81
2022/04/19 07:30:09;;;;;;;0.30;0.30;;;12.80;99.90;;;;;;5000801;28;20199;-82
2022/04/19 07:32:34;;;;;;;1.20;0.67;;;12.90;99.90;;;;;;5002488;28;20206;-82
2022/04/19 07:35:01;;;;;;;0.60;0.60;;;13.00;99.90;;;;;;5007957;28;21876;-82
2022/04/19 07:37:28;;;;;;;0.20;0.20;;;13.20;99.90;;;;;;5008134;28;20266;-83
2022/04/19 07:39:54;;;;;;;0.20;0.20;;;13.50;99.90;;;;;;5007392;28;20670;-82
2022/04/19 07:42:19;;;;;;;0.33;0.33;;;13.50;99.90;;;;;;5005782;28;20189;-82
2022/04/19 07:44:45;;;;;;;1.43;0.77;;;13.80;99.90;;;;;;5006747;28;20196;-82
2022/04/19 07:47:14;;;;;;;0.30;0.30;;;13.90;99.90;;;;;;5008008;28;20199;-83
2022/04/19 07:49:39;;;;;;;1.03;1.03;;;14.00;99.90;;;;;;5000632;28;20189;-82
2022/04/19 07:52:05;;;;;;;0.13;0.13;;;14.00;99.90;;;;;;5015942;28;20693;-84
2022/04/19 07:54:30;;;;;;;0.63;0.60;;;14.20;99.90;;;;;;5006714;28;20217;-83
2022/04/19 07:56:56;;;;;;;1.03;0.67;;;13.80;99.90;;;;;;5008326;28;20199;-82
2022/04/19 07:59:21;;;;;;;0.23;0.23;;;13.30;99.90;;;;;;5016765;28;20252;-83
2022/04/19 08:01:47;;;;;;;1.40;0.87;;;13.80;99.90;;;;;;5006464;28;20651;-82
2022/04/19 08:04:12;;;;;;;0.60;0.50;;;14.20;99.90;;;;;;4999081;28;20218;-84
2022/04/19 08:06:38;;;;;;;3.40;0.77;;;14.60;99.90;;;;;;5000118;28;20192;-83
2022/04/19 08:09:04;;;;;;;0.40;0.40;;;14.80;99.90;;;;;;5005523;28;20216;-82
2022/04/19 08:11:30;;;;;;;0.67;0.57;;;15.10;99.90;;;;;;4999267;28;20194;-83
2022/04/19 08:13:55;;;;;;;0.17;0.17;;;14.80;99.90;;;;;;4999753;28;21207;-83
2022/04/19 08:16:21;;;;;;;1.10;0.53;;;14.90;99.90;;;;;;5014379;28;20188;-83
2022/04/19 08:18:46;;;;;;;0.83;0.83;;;15.10;99.90;;;;;;4999450;28;20206;-83
2022/04/19 08:21:12;;;;;;;1.93;1.73;;;15.40;99.90;;;;;;5006526;28;20194;-83
2022/04/19 08:23:37;;;;;;;0.60;0.60;;;15.50;99.90;;;;;;5004689;28;20282;-83
2022/04/19 08:26:03;;;;;;;0.50;0.50;;;15.80;99.90;;;;;;5000829;28;20200;-82
2022/04/19 08:28:28;;;;;;;1.87;0.47;;;16.10;99.90;;;;;;5016935;28;20217;-82
2022/04/19 08:30:54;;;;;;;1.07;0.67;;;16.10;99.90;;;;;;4999086;28;20199;-82
2022/04/19 08:33:20;;;;;;;0.87;0.43;;;16.30;99.90;;;;;;4998301;28;20211;-82
2022/04/19 08:35:45;;;;;;;0.90;0.30;;;16.40;99.90;;;;;;5005489;28;20571;-82
2022/04/19 08:38:11;;;;;;;0.80;0.80;;;16.30;99.90;;;;;;5000063;28;20215;-81
2022/04/19 08:40:36;;;;;;;1.20;0.70;;;16.40;99.90;;;;;;4998197;28;20194;-82
2022/04/19 08:43:02;;;;;;;0.60;0.60;;;16.30;99.90;;;;;;5012776;28;20385;-82
2022/04/19 08:45:28;;;;;;;4.83;0.40;;;16.50;99.90;;;;;;5014075;28;20187;-82
2022/04/19 08:47:54;;;;;;;0.57;0.40;;;16.70;99.90;;;;;;4999274;28;20210;-82
2022/04/19 08:50:21;;;;;;;1.30;0.87;;;17.00;99.90;;;;;;5015635;28;20219;-83
2022/04/19 08:52:47;;;;;;;1.70;1.03;;;17.10;99.90;;;;;;5013818;28;20218;-83
2022/04/19 08:57:58;;;;;;;0.50;0.50;;;17.10;99.90;;;;;;5000328;28;20358;-83
2022/04/19 09:00:25;;;;;;;0.47;0.47;;;17.20;99.90;;;;;;5014688;28;21003;-83
2022/04/19 09:02:52;;;;;;;1.33;1.23;;;17.40;99.90;;;;;;5001550;28;20192;-83
2022/04/19 09:05:23;;;;;;;1.17;0.77;;;17.70;99.90;;;;;;4998953;28;20262;-83
2022/04/19 09:07:51;;;;;;;1.20;1.10;;;17.80;99.90;;;;;;4997477;28;20231;-84
2022/04/19 09:10:31;;;;;;;1.77;1.27;;;17.10;99.90;;;;;;5001223;28;20198;-83
2022/04/19 09:13:21;;;;;;;0.47;0.47;;;17.10;99.90;;;;;;5003969;28;20213;-84
2022/04/19 09:15:47;;;;;;;0.73;0.73;;;17.30;99.90;;;;;;4999989;28;20179;-83
2022/04/19 09:18:29;;;;;;;0.30;0.30;;;17.70;99.90;;;;;;4998460;28;20214;-83
2022/04/19 09:20:56;;;;;;;0.77;0.50;;;17.70;99.90;;;;;;4998097;28;20187;-83
2022/04/19 09:23:23;;;;;;;0.93;0.40;;;17.90;99.90;;;;;;4998483;28;20188;-83
2022/04/19 09:25:53;;;;;;;0.93;0.87;;;18.10;99.90;;;;;;4998165;28;20217;-84
2022/04/19 09:28:24;;;;;;;1.77;0.97;;;17.90;99.90;;;;;;4998080;28;20241;-83
2022/04/19 09:30:52;;;;;;;1.47;1.10;;;17.90;99.90;;;;;;5003747;28;20199;-83
2022/04/19 09:33:21;;;;;;;0.83;0.80;;;18.00;99.90;;;;;;4999389;28;20264;-83
2022/04/19 09:35:48;;;;;;;0.40;0.40;;;17.40;99.90;;;;;;5001321;28;20299;-84
2022/04/19 09:38:14;;;;;;;1.90;0.90;;;17.50;99.90;;;;;;4997440;28;20199;-83
2022/04/19 09:40:49;;;;;;;1.13;0.57;;;17.90;99.90;;;;;;4999465;28;20206;-84
2022/04/19 09:43:21;;;;;;;0.57;0.57;;;18.00;99.90;;;;;;5012988;28;20687;-84
2022/04/19 09:46:03;;;;;;;1.07;0.90;;;17.40;99.90;;;;;;5016264;28;20198;-84
2022/04/19 09:48:31;;;;;;;1.60;1.23;;;16.80;99.90;;;;;;4995996;28;20847;-82
2022/04/19 09:51:02;;;;;;;0.90;0.90;;;17.50;99.90;;;;;;4998175;28;20191;-82
2022/04/19 09:53:48;;;;;;;3.60;0.50;;;17.90;99.90;;;;;;5002389;28;20198;-83
2022/04/19 09:56:19;;;;;;;1.80;0.73;;;18.40;99.90;;;;;;5004219;28;20296;-84
2022/04/19 09:58:49;;;;;;;0.87;0.40;;;18.30;99.90;;;;;;4998070;28;20281;-83
2022/04/19 10:09:38;;;;;;;1.03;1.03;;;19.00;99.90;;;;;;4999728;28;20715;-83
2022/04/19 10:12:06;;;;;;;0.97;0.87;;;18.80;99.90;;;;;;4998349;28;21257;-84
2022/04/19 10:14:33;;;;;;;0.60;0.50;;;19.10;99.90;;;;;;5003755;28;20180;-83
2022/04/19 10:16:59;;;;;;;1.83;1.33;;;19.20;99.90;;;;;;4996167;28;20712;-81
2022/04/19 10:19:27;;;;;;;1.03;1.03;;;19.10;99.90;;;;;;5003597;28;20266;-81
2022/04/19 10:21:53;;;;;;;3.03;0.67;;;19.20;99.90;;;;;;4997809;28;20499;-81
2022/04/19 10:24:20;;;;;;;2.33;0.60;;;18.50;99.90;;;;;;5003262;28;20245;-80
2022/04/19 10:26:51;;;;;;;0.80;0.80;;;18.60;99.90;;;;;;5000661;28;20287;-81
2022/04/19 10:29:29;;;;;;;0.70;0.70;;;18.90;99.90;;;;;;5003365;28;20244;-81
2022/04/19 10:32:03;;;;;;;0.90;0.90;;;18.40;99.90;;;;;;4996127;28;20225;-81
2022/04/19 10:34:31;;;;;;;1.93;0.70;;;18.70;99.90;;;;;;5012611;28;20179;-81
2022/04/19 10:37:24;;;;;;;2.20;0.80;;;19.20;99.90;;;;;;5011564;28;20207;-80
2022/04/19 10:39:52;;;;;;;0.80;0.80;;;19.10;99.90;;;;;;4994899;28;20199;-81
2022/04/19 10:42:37;;;;;;;0.53;0.53;;;19.10;99.90;;;;;;4997777;28;20208;-81
2022/04/19 10:45:14;;;;;;;0.57;0.57;;;19.50;99.90;;;;;;5013105;28;20242;-81
2022/04/19 10:47:58;;;;;;;3.90;1.50;;;19.40;99.90;;;;;;5011934;28;20261;-81
2022/04/19 10:50:33;;;;;;;1.33;1.03;;;18.70;99.90;;;;;;5012815;28;20556;-81
2022/04/19 10:53:10;;;;;;;0.67;0.67;;;19.10;99.90;;;;;;5011121;28;20205;-81
2022/04/19 10:55:40;;;;;;;0.60;0.60;;;19.40;99.90;;;;;;4997726;28;20202;-80
2022/04/19 10:58:09;;;;;;;0.80;0.80;;;19.90;99.90;;;;;;4993007;28;20278;-80
2022/04/19 11:00:34;;;;;;;1.03;0.97;;;19.90;99.90;;;;;;4998832;28;20233;-80
2022/04/19 11:03:02;;;;;;;0.77;0.77;;;20.10;99.90;;;;;;4993008;28;20694;-83
2022/04/19 11:05:42;;;;;;;0.90;0.90;;;20.00;99.90;;;;;;4994928;28;20194;-82
2022/04/19 11:08:27;;;;;;;0.93;0.93;;;19.30;99.90;;;;;;5010450;28;20806;-83
2022/04/19 11:10:55;;;;;;;0.40;0.40;;;18.50;99.90;;;;;;5013147;28;20561;-84
2022/04/19 11:13:34;;;;;;;1.43;1.33;;;18.70;99.90;;;;;;5014046;28;20208;-83
2022/04/19 11:16:04;;;;;;;0.83;0.83;;;19.30;99.90;;;;;;5012911;28;20215;-83
2022/04/19 11:18:39;;;;;;;0.77;0.77;;;19.80;99.90;;;;;;5016185;28;20309;-82
2022/04/19 11:21:07;;;;;;;0.67;0.67;;;19.90;99.90;;;;;;4999542;28;20210;-82
2022/04/19 11:23:50;;;;;;;1.60;0.67;;;19.70;99.90;;;;;;5007514;28;20187;-83
2022/04/19 11:26:30;;;;;;;2.33;0.90;;;19.90;99.90;;;;;;5016059;28;20185;-84
2022/04/19 11:29:08;;;;;;;0.87;0.63;;;19.30;99.90;;;;;;5001139;28;20241;-83
2022/04/19 11:31:34;;;;;;;2.20;1.40;;;19.20;99.90;;;;;;5015262;28;20285;-84
2022/04/19 11:34:00;;;;;;;1.43;1.33;;;19.70;99.90;;;;;;4999669;28;20234;-84
2022/04/19 11:36:26;;;;;;;0.77;0.77;;;20.10;99.90;;;;;;5017336;28;20583;-82
2022/04/19 11:38:52;;;;;;;0.90;0.90;;;20.40;99.90;;;;;;5017826;28;20219;-83
2022/04/19 11:46:51;;;;;;;0.77;0.70;;;19.50;99.90;;;;;;5002033;28;20198;-83
2022/04/19 11:49:19;;;;;;;1.60;1.20;;;19.80;99.90;;;;;;5000819;28;20198;-84
2022/04/19 11:51:52;;;;;;;2.77;0.97;;;19.50;99.90;;;;;;5015296;28;20194;-83
2022/04/19 11:54:28;;;;;;;1.37;0.83;;;19.40;99.90;;;;;;4999875;28;20274;-83
2022/04/19 11:56:59;;;;;;;0.97;0.97;;;19.10;99.90;;;;;;4999017;28;20246;-83
2022/04/19 11:59:35;;;;;;;1.30;0.50;;;19.70;99.90;;;;;;5014363;28;20200;-83
2022/04/19 12:02:04;;;;;;;0.80;0.80;;;20.10;99.90;;;;;;5002598;28;20217;-84
2022/04/19 12:04:29;;;;;;;3.23;0.67;;;20.20;99.90;;;;;;5000771;28;20194;-82
2022/04/19 12:07:01;;;;;;;0.77;0.77;;;20.30;99.90;;;;;;5000648;28;20821;-83
2022/04/19 12:09:28;;;;;;;0.83;0.43;;;20.10;99.90;;;;;;5000042;28;20204;-84
2022/04/19 12:11:55;;;;;;;1.23;0.67;;;20.50;99.90;;;;;;5005121;28;20569;-83
2022/04/19 12:14:31;;;;;;;1.33;1.23;;;20.50;99.90;;;;;;4999525;28;20194;-83
2022/04/19 12:17:02;;;;;;;2.23;1.10;;;19.50;99.90;;;;;;5004503;28;20278;-83
2022/04/19 12:19:35;;;;;;;1.10;1.00;;;19.30;99.90;;;;;;5004810;28;20199;-83
2022/04/19 12:22:01;;;;;;;1.00;0.80;;;19.10;99.90;;;;;;5000535;28;20598;-83
2022/04/19 12:24:28;;;;;;;0.60;0.60;;;19.50;99.90;;;;;;4999047;28;20205;-84
2022/04/19 12:27:05;;;;;;;1.13;0.93;;;19.40;99.90;;;;;;5013380;28;20198;-83
2022/04/19 12:29:32;;;;;;;1.43;0.93;;;19.70;99.90;;;;;;5001025;28;20978;-83
2022/04/19 12:32:00;;;;;;;0.30;0.30;;;20.10;99.90;;;;;;5003140;28;20217;-83
2022/04/19 12:34:37;;;;;;;1.13;0.80;;;20.30;99.90;;;;;;4996412;28;20179;-83
2022/04/19 12:37:12;;;;;;;6.50;1.00;;;20.20;99.90;;;;;;4999106;28;20179;-83
2022/04/19 12:39:37;;;;;;;1.57;0.50;;;19.70;99.90;;;;;;5014936;28;20206;-83
2022/04/19 12:42:08;;;;;;;1.90;0.93;;;20.10;99.90;;;;;;5005651;28;20301;-83
2022/04/19 12:44:35;;;;;;;0.43;0.43;;;19.90;99.90;;;;;;4997604;28;20881;-83
2022/04/19 12:47:09;;;;;;;0.70;0.70;;;20.40;99.90;;;;;;4999965;28;20270;-83
2022/04/19 12:49:45;;;;;;;0.93;0.73;;;20.80;99.90;;;;;;5014720;28;20315;-83
2022/04/19 12:52:12;;;;;;;1.13;0.70;;;20.30;99.90;;;;;;5006089;28;20214;-83
2022/04/19 12:54:47;;;;;;;1.07;0.93;;;20.90;99.90;;;;;;5000683;28;20790;-84
2022/04/19 12:57:14;;;;;;;1.50;1.40;;;20.80;99.90;;;;;;5014624;28;20183;-83
2022/04/19 12:59:43;;;;;;;0.77;0.77;;;20.70;99.90;;;;;;4998594;28;20221;-84
2022/04/19 13:02:09;;;;;;;0.37;0.37;;;20.40;99.90;;;;;;5000804;28;20211;-83
2022/04/19 13:04:35;;;;;;;0.53;0.53;;;20.40;99.90;;;;;;5004682;28;20676;-84
2022/04/19 13:12:30;;;;;;;0.97;0.33;;;20.20;99.90;;;;;;4995182;28;20257;-84
2022/04/19 13:14:57;;;;;;;1.03;0.40;;;20.30;99.90;;;;;;5013087;28;20194;-83
2022/04/19 13:17:25;;;;;;;1.80;0.53;;;20.30;99.90;;;;;;4998128;28;20259;-83
2022/04/19 13:19:50;;;;;;;0.97;0.50;;;20.20;99.90;;;;;;4999675;28;20591;-84
2022/04/19 13:22:16;;;;;;;0.70;0.70;;;20.60;99.90;;;;;;5000610;28;20191;-83
2022/04/19 13:24:42;;;;;;;0.33;0.33;;;20.10;99.90;;;;;;5002671;28;20621;-83
2022/04/19 13:27:11;;;;;;;0.23;0.23;;;20.20;99.90;;;;;;5003122;28;20189;-83
2022/04/19 13:29:38;;;;;;;0.37;0.33;;;20.30;99.90;;;;;;4997927;28;20214;-83
2022/04/19 13:32:04;;;;;;;0.47;0.47;;;20.50;99.90;;;;;;4999593;28;20242;-84
2022/04/19 13:34:30;;;;;;;0.87;0.50;;;20.80;99.90;;;;;;4999650;28;20187;-83
2022/04/19 13:36:57;;;;;;;0.40;0.40;;;20.90;99.90;;;;;;5005292;28;20262;-83
2022/04/19 13:39:23;;;;;;;1.20;0.50;;;21.00;99.90;;;;;;4999039;28;20199;-83